createdAt,value
2018-03-29T00:00:25.185Z,0.80
2018-03-29T00:02:52.773Z,0.50
2018-03-29T00:05:22.062Z,0.60
2018-03-29T00:07:50.218Z,0.67
2018-03-29T00:10:17.782Z,0.40
2018-03-29T00:12:45.477Z,0.70
2018-03-29T00:15:13.025Z,0.60
2018-03-29T00:17:40.698Z,0.43
2018-03-29T00:20:08.266Z,0.50
2018-03-29T00:22:35.817Z,0.53
2018-03-29T00:25:03.457Z,0.50
2018-03-29T00:27:31.120Z,0.40
2018-03-29T00:29:58.706Z,0.50
2018-03-29T00:32:26.299Z,0.60
2018-03-29T00:34:54.025Z,0.40
2018-03-29T00:37:22.420Z,0.53
2018-03-29T00:39:50.243Z,0.53
2018-03-29T00:42:17.853Z,0.50
2018-03-29T00:44:45.380Z,0.60
2018-03-29T00:47:12.953Z,0.70
2018-03-29T00:49:40.736Z,0.70
2018-03-29T00:52:08.424Z,0.70
2018-03-29T00:54:35.974Z,1.40
2018-03-29T00:57:03.663Z,1.30
2018-03-29T00:59:31.271Z,0.80
2018-03-29T01:01:58.823Z,0.73
2018-03-29T01:04:26.441Z,0.83
2018-03-29T01:06:54.082Z,1.20
2018-03-29T01:09:22.409Z,0.60
2018-03-29T01:11:51.228Z,0.60
2018-03-29T01:14:18.796Z,0.53
2018-03-29T01:16:46.392Z,0.70
2018-03-29T01:19:14.079Z,0.63
2018-03-29T01:21:41.724Z,0.83
2018-03-29T01:24:09.742Z,0.93
2018-03-29T01:26:37.327Z,0.77
2018-03-29T01:29:04.932Z,0.70
2018-03-29T01:31:32.481Z,0.63
2018-03-29T01:34:00.066Z,1.00
2018-03-29T01:36:27.657Z,0.87
2018-03-29T01:38:55.989Z,1.17
2018-03-29T01:41:23.636Z,1.10
2018-03-29T01:43:51.921Z,1.23
2018-03-29T01:46:20.988Z,1.30
2018-03-29T01:48:48.576Z,1.03
2018-03-29T01:51:16.139Z,1.10
2018-03-29T01:53:43.702Z,0.90
2018-03-29T01:56:11.336Z,0.90
2018-03-29T01:58:38.882Z,1.10
2018-03-29T02:01:06.478Z,0.90
2018-03-29T02:03:34.068Z,1.07
2018-03-29T02:06:01.676Z,1.07
2018-03-29T02:08:29.580Z,1.10
2018-03-29T02:10:57.183Z,1.20
2018-03-29T02:13:24.750Z,0.90
2018-03-29T02:15:53.345Z,1.00
2018-03-29T02:18:21.723Z,0.90
2018-03-29T02:20:49.291Z,1.10
2018-03-29T02:23:17.632Z,1.07
2018-03-29T02:25:45.218Z,1.00
2018-03-29T02:28:12.781Z,1.30
2018-03-29T02:30:40.380Z,1.17
2018-03-29T02:33:07.964Z,1.47
2018-03-29T02:35:36.460Z,1.27
2018-03-29T02:38:04.067Z,1.20
2018-03-29T02:40:31.688Z,1.60
2018-03-29T02:42:59.316Z,1.63
2018-03-29T02:45:27.010Z,1.23
2018-03-29T02:47:54.941Z,1.67
2018-03-29T02:50:22.590Z,1.77
2018-03-29T02:52:50.889Z,1.60
2018-03-29T02:55:18.870Z,1.37
2018-03-29T02:57:46.491Z,1.40
2018-03-29T03:00:15.072Z,1.80
2018-03-29T03:02:42.702Z,2.20
2018-03-29T03:05:10.265Z,1.90
2018-03-29T03:07:37.944Z,1.90
2018-03-29T03:10:05.573Z,2.00
2018-03-29T03:12:33.199Z,2.17
2018-03-29T03:15:00.794Z,1.63
2018-03-29T03:17:28.383Z,1.57
2018-03-29T03:19:55.935Z,1.83
2018-03-29T03:22:23.786Z,2.13
2018-03-29T03:24:52.285Z,1.80
2018-03-29T03:27:20.191Z,4.20
2018-03-29T03:29:47.904Z,2.30
2018-03-29T03:32:15.481Z,2.10
2018-03-29T03:34:43.023Z,2.00
2018-03-29T03:37:10.809Z,2.17
2018-03-29T03:39:39.114Z,2.10
2018-03-29T03:42:06.668Z,1.90
2018-03-29T03:44:34.316Z,1.77
2018-03-29T03:47:01.977Z,2.03
2018-03-29T03:49:29.520Z,1.80
2018-03-29T03:51:57.393Z,2.13
2018-03-29T03:54:25.702Z,2.30
2018-03-29T03:56:53.271Z,2.57
2018-03-29T03:59:21.345Z,3.30
2018-03-29T04:01:49.703Z,3.77
2018-03-29T04:04:17.306Z,3.73
2018-03-29T04:06:44.899Z,4.37
2018-03-29T04:09:12.489Z,3.80
2018-03-29T04:11:40.061Z,4.17
2018-03-29T04:14:07.969Z,4.07
2018-03-29T04:16:36.118Z,4.17
2018-03-29T04:19:05.019Z,4.20
2018-03-29T04:21:33.968Z,3.87
2018-03-29T04:24:01.564Z,5.00
2018-03-29T04:26:29.242Z,4.10
2018-03-29T04:28:57.495Z,5.10
2018-03-29T04:31:25.050Z,6.27
2018-03-29T04:33:52.577Z,4.90
2018-03-29T04:36:20.154Z,4.30
2018-03-29T04:38:47.739Z,4.57
2018-03-29T04:41:15.333Z,4.97
2018-03-29T04:43:43.029Z,5.70
2018-03-29T04:46:10.575Z,5.10
2018-03-29T04:48:38.223Z,5.30
2018-03-29T04:51:06.167Z,4.40
2018-03-29T04:53:33.998Z,4.53
2018-03-29T04:56:01.620Z,4.80
2018-03-29T04:58:29.227Z,4.20
2018-03-29T05:00:56.858Z,5.10
2018-03-29T05:03:24.436Z,5.30
2018-03-29T05:05:52.030Z,5.37
2018-03-29T05:08:19.633Z,5.20
2018-03-29T05:10:47.241Z,4.53
2018-03-29T05:13:15.636Z,5.47
2018-03-29T05:15:43.249Z,4.80
2018-03-29T05:18:10.966Z,5.27
2018-03-29T05:20:38.531Z,5.13
2018-03-29T05:23:06.269Z,5.60
2018-03-29T05:25:35.763Z,4.43
2018-03-29T05:28:09.208Z,5.43
2018-03-29T05:30:36.956Z,5.20
2018-03-29T05:33:04.951Z,5.10
2018-03-29T05:35:32.851Z,5.07
2018-03-29T05:38:00.598Z,5.23
2018-03-29T05:40:28.165Z,6.40
2018-03-29T05:42:55.729Z,5.83
2018-03-29T05:45:24.117Z,6.10
2018-03-29T05:47:51.662Z,5.37
2018-03-29T05:50:19.241Z,5.40
2018-03-29T05:52:48.092Z,5.27
2018-03-29T05:55:15.881Z,6.50
2018-03-29T05:57:43.529Z,4.57
2018-03-29T06:00:11.247Z,5.03
2018-03-29T06:02:38.812Z,5.27
2018-03-29T06:05:06.631Z,5.00
2018-03-29T06:07:35.088Z,4.60
2018-03-29T06:10:02.686Z,5.13
2018-03-29T06:12:31.140Z,5.07
2018-03-29T06:15:05.735Z,5.50
2018-03-29T06:17:35.801Z,5.40
2018-03-29T06:20:03.912Z,6.43
2018-03-29T06:22:31.635Z,5.70
2018-03-29T06:24:59.334Z,4.90
2018-03-29T06:27:27.885Z,5.37
2018-03-29T06:29:55.536Z,5.60
2018-03-29T06:32:23.211Z,5.50
2018-03-29T06:34:51.551Z,5.60
2018-03-29T06:37:19.247Z,5.50
2018-03-29T06:39:46.882Z,4.90
2018-03-29T06:42:15.279Z,4.90
2018-03-29T06:44:42.847Z,6.23
2018-03-29T06:47:10.629Z,4.93
2018-03-29T06:49:38.241Z,7.73
2018-03-29T06:52:07.002Z,5.20
2018-03-29T06:54:34.852Z,5.40
2018-03-29T06:57:03.939Z,5.30
2018-03-29T06:59:31.613Z,4.87
2018-03-29T07:02:00.148Z,5.10
2018-03-29T07:04:28.687Z,4.87
2018-03-29T07:06:56.278Z,5.07
2018-03-29T07:09:24.207Z,4.80
2018-03-29T07:11:51.821Z,4.80
2018-03-29T07:14:19.544Z,4.73
2018-03-29T07:16:48.019Z,4.40
2018-03-29T07:19:16.353Z,4.70
2018-03-29T07:21:44.175Z,4.87
2018-03-29T07:24:13.022Z,5.43
2018-03-29T07:26:40.711Z,4.70
2018-03-29T07:31:48.621Z,5.27
2018-03-29T07:34:16.332Z,5.57
2018-03-29T07:36:43.910Z,4.77
2018-03-29T07:39:11.591Z,4.43
2018-03-29T07:41:40.046Z,5.27
2018-03-29T07:44:07.740Z,4.80
2018-03-29T07:46:35.817Z,5.50
2018-03-29T07:49:04.023Z,5.73
2018-03-29T07:51:31.633Z,4.53
2018-03-29T07:53:59.253Z,4.73
2018-03-29T07:56:30.929Z,4.97
2018-03-29T07:58:59.324Z,5.77
2018-03-29T08:01:26.895Z,4.40
2018-03-29T08:03:54.468Z,3.83
2018-03-29T08:06:25.087Z,3.80
2018-03-29T08:08:51.683Z,4.20
2018-03-29T08:11:18.348Z,4.50
2018-03-29T08:13:45.804Z,4.10
2018-03-29T08:16:12.432Z,4.63
2018-03-29T08:18:39.116Z,4.60
2018-03-29T08:21:05.850Z,3.77
2018-03-29T08:23:33.210Z,5.00
2018-03-29T08:29:04.687Z,4.40
2018-03-29T08:31:33.064Z,5.17
2018-03-29T08:34:00.644Z,5.40
2018-03-29T08:36:29.010Z,6.17
2018-03-29T08:38:57.308Z,5.00
2018-03-29T08:41:25.835Z,4.23
2018-03-29T08:43:53.483Z,4.40
2018-03-29T08:46:21.092Z,4.17
2018-03-29T08:48:48.693Z,3.83
2018-03-29T08:51:16.288Z,5.60
2018-03-29T08:53:44.799Z,4.97
2018-03-29T08:56:12.368Z,3.80
2018-03-29T08:58:39.913Z,4.90
2018-03-29T09:01:07.607Z,5.53
2018-03-29T09:03:35.198Z,4.67
2018-03-29T09:06:04.407Z,4.47
2018-03-29T09:08:32.334Z,4.80
2018-03-29T09:10:59.969Z,4.97
2018-03-29T09:13:27.594Z,7.83
2018-03-29T09:15:56.084Z,4.50
2018-03-29T09:18:24.522Z,4.80
2018-03-29T09:20:52.125Z,6.77
2018-03-29T09:23:20.657Z,6.80
2018-03-29T09:25:48.415Z,6.40
2018-03-29T09:28:16.170Z,5.07
2018-03-29T09:30:44.643Z,5.57
2018-03-29T09:33:12.186Z,4.90
2018-03-29T09:35:39.774Z,5.30
2018-03-29T09:38:07.492Z,5.80
2018-03-29T09:40:35.783Z,5.13
2018-03-29T09:43:03.334Z,5.67
2018-03-29T09:45:31.400Z,5.80
2018-03-29T09:47:59.783Z,5.73
2018-03-29T09:50:27.353Z,6.20
2018-03-29T09:52:54.975Z,5.80
2018-03-29T09:55:23.298Z,6.27
2018-03-29T09:57:51.857Z,5.40
2018-03-29T10:00:25.190Z,4.50
2018-03-29T10:02:54.689Z,5.07
2018-03-29T10:05:28.132Z,5.67
2018-03-29T10:07:56.451Z,5.40
2018-03-29T10:10:24.159Z,6.00
2018-03-29T10:12:51.771Z,6.17
2018-03-29T10:15:24.659Z,5.50
2018-03-29T10:17:52.181Z,5.20
2018-03-29T10:20:20.924Z,5.20
2018-03-29T10:22:48.630Z,5.27
2018-03-29T10:25:18.134Z,5.27
2018-03-29T10:27:45.809Z,5.60
2018-03-29T10:30:13.416Z,5.20
2018-03-29T10:32:40.998Z,5.07
2018-03-29T10:35:09.319Z,5.30
2018-03-29T10:37:36.950Z,4.77
2018-03-29T10:40:05.265Z,4.90
2018-03-29T10:42:32.868Z,5.30
2018-03-29T10:45:01.244Z,5.40
2018-03-29T10:47:28.890Z,5.53
2018-03-29T10:49:56.448Z,5.13
2018-03-29T10:52:24.051Z,5.70
2018-03-29T10:54:51.586Z,5.70
2018-03-29T10:57:20.030Z,6.20
2018-03-29T10:59:47.637Z,5.63
2018-03-29T11:02:15.949Z,4.87
2018-03-29T11:04:43.498Z,4.50
2018-03-29T11:07:11.118Z,4.50
2018-03-29T11:09:39.463Z,6.10
2018-03-29T11:12:07.034Z,5.73
2018-03-29T11:14:34.618Z,5.60
2018-03-29T11:17:03.020Z,4.40
2018-03-29T11:19:30.592Z,4.63
2018-03-29T11:21:58.127Z,5.17
2018-03-29T11:24:25.684Z,4.83
2018-03-29T11:26:53.257Z,6.20
2018-03-29T11:29:20.801Z,4.90
2018-03-29T11:31:48.378Z,5.27
2018-03-29T11:34:16.902Z,4.63
2018-03-29T11:36:44.492Z,4.40
2018-03-29T11:39:14.036Z,4.70
2018-03-29T11:41:41.602Z,4.47
2018-03-29T11:44:09.143Z,4.93
2018-03-29T11:46:39.583Z,4.10
2018-03-29T11:49:08.125Z,4.30
2018-03-29T11:51:35.659Z,3.90
2018-03-29T11:54:10.652Z,4.50
2018-03-29T11:56:38.267Z,4.23
2018-03-29T11:59:06.608Z,4.30
2018-03-29T12:01:35.176Z,4.43
2018-03-29T12:04:04.781Z,4.23
2018-03-29T12:06:32.395Z,4.43
2018-03-29T12:09:00.997Z,4.23
2018-03-29T12:11:28.540Z,4.00
2018-03-29T12:13:57.164Z,4.00
2018-03-29T12:16:24.744Z,4.10
2018-03-29T12:18:52.322Z,3.87
2018-03-29T12:21:20.711Z,4.80
2018-03-29T12:23:49.021Z,3.93
2018-03-29T12:26:16.561Z,5.07
2018-03-29T12:28:45.564Z,4.53
2018-03-29T12:31:13.239Z,3.43
2018-03-29T12:33:40.805Z,4.30
2018-03-29T12:36:08.436Z,3.57
2018-03-29T12:38:35.973Z,3.40
2018-03-29T12:41:04.309Z,4.30
2018-03-29T12:43:31.901Z,3.80
2018-03-29T12:46:00.213Z,3.93
2018-03-29T12:48:27.770Z,4.63
2018-03-29T12:50:55.342Z,3.93
2018-03-29T12:53:22.919Z,3.87
2018-03-29T12:55:50.590Z,3.77
2018-03-29T12:58:18.190Z,4.20
2018-03-29T13:00:46.796Z,3.87
2018-03-29T13:03:14.652Z,4.40
2018-03-29T13:05:42.291Z,5.20
2018-03-29T13:08:10.604Z,4.43
2018-03-29T13:10:38.202Z,4.57
2018-03-29T13:13:06.556Z,4.20
2018-03-29T13:15:34.224Z,4.43
2018-03-29T13:18:01.913Z,4.63
2018-03-29T13:20:30.254Z,3.33
2018-03-29T13:22:57.855Z,3.67
2018-03-29T13:25:28.219Z,4.27
2018-03-29T13:27:56.586Z,3.87
2018-03-29T13:30:25.001Z,4.63
2018-03-29T13:32:54.564Z,5.00
2018-03-29T13:35:23.144Z,4.63
2018-03-29T13:37:50.781Z,6.67
2018-03-29T13:40:21.088Z,5.47
2018-03-29T13:42:49.434Z,4.87
2018-03-29T13:45:19.046Z,4.70
2018-03-29T13:47:46.658Z,4.50
2018-03-29T13:50:14.232Z,4.33
2018-03-29T13:52:42.445Z,4.10
2018-03-29T13:55:10.052Z,5.20
2018-03-29T13:57:37.631Z,4.40
2018-03-29T14:00:05.285Z,4.47
2018-03-29T14:02:34.670Z,5.47
2018-03-29T14:05:02.257Z,5.23
2018-03-29T14:07:29.862Z,4.50
2018-03-29T14:09:57.427Z,5.07
2018-03-29T14:12:25.772Z,5.03
2018-03-29T14:14:54.094Z,4.50
2018-03-29T14:17:21.650Z,3.80
2018-03-29T14:19:49.961Z,4.30
2018-03-29T14:22:17.531Z,4.70
2018-03-29T14:24:46.026Z,4.70
2018-03-29T14:27:13.577Z,4.80
2018-03-29T14:29:41.146Z,4.70
2018-03-29T14:32:08.689Z,4.43
2018-03-29T14:34:36.255Z,5.13
2018-03-29T14:37:03.864Z,4.67
2018-03-29T14:39:31.421Z,5.37
2018-03-29T14:41:59.505Z,6.07
2018-03-29T14:44:27.070Z,5.00
2018-03-29T14:46:55.715Z,8.07
2018-03-29T14:49:23.247Z,4.93
2018-03-29T14:51:51.736Z,5.00
2018-03-29T14:54:19.328Z,5.40
2018-03-29T14:56:46.882Z,4.80
2018-03-29T14:59:14.458Z,5.00
2018-03-29T15:01:41.999Z,4.20
2018-03-29T15:04:10.383Z,4.73
2018-03-29T15:06:39.108Z,4.07
2018-03-29T15:09:06.723Z,5.20
2018-03-29T15:11:35.207Z,6.47
2018-03-29T15:14:02.838Z,4.90
2018-03-29T15:16:30.622Z,5.13
2018-03-29T15:18:59.987Z,5.20
2018-03-29T15:21:27.700Z,4.47
2018-03-29T15:23:55.307Z,5.60
2018-03-29T15:26:22.987Z,4.90
2018-03-29T15:28:51.397Z,4.80
2018-03-29T15:31:19.009Z,4.73
2018-03-29T15:33:46.704Z,4.60
2018-03-29T15:36:15.072Z,4.10
2018-03-29T15:38:43.426Z,4.60
2018-03-29T15:41:11.020Z,5.23
2018-03-29T15:43:40.924Z,4.30
2018-03-29T15:46:09.274Z,4.87
2018-03-29T15:48:36.876Z,5.43
2018-03-29T15:51:04.490Z,4.97
2018-03-29T15:53:32.046Z,4.43
2018-03-29T15:55:59.963Z,4.40
2018-03-29T15:58:27.490Z,4.40
2018-03-29T16:00:55.040Z,5.17
2018-03-29T16:03:22.645Z,5.60
2018-03-29T16:05:50.212Z,4.80
2018-03-29T16:08:17.824Z,4.00
2018-03-29T16:10:46.155Z,4.37
2018-03-29T16:13:13.748Z,5.37
2018-03-29T16:15:41.302Z,4.60
2018-03-29T16:18:08.909Z,2.27
2018-03-29T16:20:36.488Z,3.00
2018-03-29T16:23:04.058Z,3.20
2018-03-29T16:25:31.721Z,2.87
2018-03-29T16:27:59.298Z,2.57
2018-03-29T16:30:26.902Z,3.73
2018-03-29T16:32:54.457Z,3.17
2018-03-29T16:35:22.057Z,2.47
2018-03-29T16:37:49.597Z,2.50
2018-03-29T16:40:18.003Z,2.43
2018-03-29T16:42:45.606Z,2.37
2018-03-29T16:45:13.212Z,3.10
2018-03-29T16:47:41.210Z,2.47
2018-03-29T16:50:08.757Z,2.87
2018-03-29T16:52:36.351Z,2.60
2018-03-29T16:55:04.737Z,3.00
2018-03-29T16:57:32.267Z,2.97
2018-03-29T16:59:59.904Z,2.80
2018-03-29T17:02:27.577Z,2.27
2018-03-29T17:04:55.188Z,3.37
2018-03-29T17:07:22.729Z,3.03
2018-03-29T17:09:51.087Z,2.60
2018-03-29T17:12:19.420Z,2.20
2018-03-29T17:14:46.970Z,3.20
2018-03-29T17:17:14.539Z,3.03
2018-03-29T17:19:42.144Z,4.77
2018-03-29T17:22:10.446Z,3.30
2018-03-29T17:24:37.992Z,2.80
2018-03-29T17:27:05.558Z,2.47
2018-03-29T17:29:33.128Z,2.60
2018-03-29T17:32:00.719Z,2.97
2018-03-29T17:34:28.684Z,2.50
2018-03-29T17:36:56.212Z,2.70
2018-03-29T17:39:23.746Z,2.87
2018-03-29T17:41:52.091Z,2.93
2018-03-29T17:44:19.644Z,2.10
2018-03-29T17:46:48.999Z,3.23
2018-03-29T17:49:16.603Z,4.07
2018-03-29T17:51:44.174Z,2.07
2018-03-29T17:54:11.750Z,3.90
2018-03-29T17:56:40.044Z,2.80
2018-03-29T17:59:07.782Z,3.40
2018-03-29T18:01:36.324Z,3.67
2018-03-29T18:04:03.932Z,2.83
2018-03-29T18:06:32.237Z,3.00
2018-03-29T18:08:59.855Z,2.90
2018-03-29T18:11:28.179Z,2.60
2018-03-29T18:13:55.744Z,3.10
2018-03-29T18:16:23.309Z,3.47
2018-03-29T18:18:50.868Z,3.10
2018-03-29T18:21:19.152Z,3.13
2018-03-29T18:23:46.756Z,3.00
2018-03-29T18:26:15.066Z,3.10
2018-03-29T18:28:42.634Z,3.17
2018-03-29T18:31:10.212Z,3.83
2018-03-29T18:33:37.766Z,3.50
2018-03-29T18:36:05.464Z,2.80
2018-03-29T18:38:33.061Z,3.20
2018-03-29T18:41:00.696Z,3.93
2018-03-29T18:43:30.078Z,3.70
2018-03-29T18:45:58.370Z,3.37
2018-03-29T18:48:25.943Z,3.20
2018-03-29T18:50:53.487Z,3.20
2018-03-29T18:53:21.030Z,3.17
2018-03-29T18:55:49.780Z,3.37
2018-03-29T18:58:17.413Z,2.90
2018-03-29T19:00:45.670Z,3.00
2018-03-29T19:03:13.565Z,2.63
2018-03-29T19:05:41.092Z,2.30
2018-03-29T19:08:08.619Z,2.40
2018-03-29T19:10:37.020Z,3.30
2018-03-29T19:13:04.575Z,3.93
2018-03-29T19:15:32.116Z,2.80
2018-03-29T19:18:00.464Z,3.10
2018-03-29T19:20:28.084Z,3.00
2018-03-29T19:22:55.628Z,3.23
2018-03-29T19:25:23.539Z,3.13
2018-03-29T19:27:51.400Z,2.80
2018-03-29T19:30:20.745Z,3.10
2018-03-29T19:32:50.048Z,3.07
2018-03-29T19:35:18.370Z,3.17
2018-03-29T19:37:45.976Z,2.60
2018-03-29T19:40:14.614Z,3.20
2018-03-29T19:42:42.164Z,3.00
2018-03-29T19:45:09.702Z,3.57
2018-03-29T19:47:37.350Z,3.13
2018-03-29T19:50:05.707Z,3.03
2018-03-29T19:52:33.255Z,2.57
2018-03-29T19:55:00.957Z,2.37
2018-03-29T19:57:28.514Z,2.90
2018-03-29T19:59:57.088Z,2.57
2018-03-29T20:02:25.444Z,2.70
2018-03-29T20:04:53.740Z,2.50
2018-03-29T20:07:22.119Z,2.83
2018-03-29T20:09:49.652Z,3.17
2018-03-29T20:12:17.220Z,2.77
2018-03-29T20:14:46.520Z,3.40
2018-03-29T20:17:14.950Z,3.00
2018-03-29T20:19:43.292Z,3.47
2018-03-29T20:22:11.582Z,3.77
2018-03-29T20:24:40.159Z,4.60
2018-03-29T20:27:07.721Z,3.40
2018-03-29T20:29:35.284Z,5.00
2018-03-29T20:32:02.919Z,3.67
2018-03-29T20:34:31.371Z,3.90
2018-03-29T20:36:58.964Z,4.17
2018-03-29T20:39:26.605Z,3.23
2018-03-29T20:41:55.433Z,3.37
2018-03-29T20:44:23.385Z,3.57
2018-03-29T20:46:50.945Z,4.97
2018-03-29T20:49:18.484Z,5.00
2018-03-29T20:51:48.587Z,4.20
2018-03-29T20:54:16.157Z,3.70
2018-03-29T20:56:45.959Z,4.03
2018-03-29T20:59:13.534Z,3.80
2018-03-29T21:01:42.816Z,4.47
2018-03-29T21:04:10.383Z,5.07
2018-03-29T21:06:38.734Z,4.10
2018-03-29T21:09:06.355Z,4.90
2018-03-29T21:11:33.887Z,4.43
2018-03-29T21:14:02.560Z,6.20
2018-03-29T21:16:31.834Z,4.87
2018-03-29T21:18:59.417Z,4.50
2018-03-29T21:21:28.729Z,4.63
2018-03-29T21:23:56.316Z,5.13
2018-03-29T21:26:24.677Z,4.77
2018-03-29T21:28:52.226Z,4.80
2018-03-29T21:31:19.799Z,4.90
2018-03-29T21:33:47.350Z,4.37
2018-03-29T21:36:14.882Z,4.77
2018-03-29T21:38:43.263Z,3.93
2018-03-29T21:41:11.575Z,3.97
2018-03-29T21:43:39.200Z,3.40
2018-03-29T21:46:07.601Z,5.20
2018-03-29T21:48:35.263Z,3.53
2018-03-29T21:51:02.789Z,3.20
2018-03-29T21:53:30.347Z,3.30
2018-03-29T21:55:57.938Z,3.63
2018-03-29T21:58:25.963Z,3.93
2018-03-29T22:00:53.638Z,3.13
2018-03-29T22:03:21.217Z,3.30
2018-03-29T22:05:49.506Z,3.60
2018-03-29T22:08:17.084Z,3.47
2018-03-29T22:10:44.626Z,3.80
2018-03-29T22:13:12.524Z,3.30
2018-03-29T22:15:40.095Z,2.80
2018-03-29T22:18:07.674Z,2.97
2018-03-29T22:20:36.016Z,3.00
2018-03-29T22:23:03.659Z,3.50
2018-03-29T22:25:32.209Z,2.90
2018-03-29T22:27:59.783Z,3.30
2018-03-29T22:30:27.360Z,3.10
2018-03-29T22:32:54.894Z,2.80
2018-03-29T22:35:22.459Z,3.23
2018-03-29T22:37:49.994Z,3.37
2018-03-29T22:40:18.319Z,3.60
2018-03-29T22:42:45.924Z,3.23
2018-03-29T22:45:14.327Z,3.40
2018-03-29T22:47:42.882Z,3.70
2018-03-29T22:50:11.179Z,3.30
2018-03-29T22:52:38.756Z,3.10
2018-03-29T22:55:06.296Z,3.00
2018-03-29T22:57:33.830Z,3.60
2018-03-29T23:02:29.759Z,3.40
2018-03-29T23:04:57.358Z,3.07
2018-03-29T23:07:25.717Z,5.70
2018-03-29T23:09:53.293Z,6.37
2018-03-29T23:12:20.863Z,3.90
2018-03-29T23:14:49.746Z,3.20
2018-03-29T23:17:18.079Z,3.20
2018-03-29T23:19:46.418Z,2.60
2018-03-29T23:22:14.173Z,3.27
2018-03-29T23:24:41.773Z,2.50
2018-03-29T23:27:09.357Z,3.27
2018-03-29T23:29:37.620Z,3.27
2018-03-29T23:32:06.029Z,2.93
2018-03-29T23:34:34.364Z,3.03
2018-03-29T23:37:10.581Z,2.70
2018-03-29T23:39:39.128Z,3.03
2018-03-29T23:42:07.438Z,2.70
2018-03-29T23:44:35.889Z,1.97
2018-03-29T23:47:03.534Z,2.57
2018-03-29T23:49:31.103Z,3.00
2018-03-29T23:51:58.678Z,2.43
2018-03-29T23:54:27.019Z,3.27
2018-03-29T23:56:55.358Z,3.60
2018-03-29T23:59:22.980Z,3.40
